Tiempo atmosférico en la estación meteorológica de La Póveda de Soria, Barriomartín, Soria (1260 m.)



Fecha
DESCASC
Temp. máxima en grados centígrados (hora)
DESCASC
Temp. mínima en grados centígrados (hora)
DESCASC
Temp. media en grados centígrados
DESCASC
Racha de viento máxima en m/sg (hora)
DESCASC
Velocidad máxima media en intervalos de 10 minutos(hora)
DESCASC
Precipitaciones diarias en mm
DESCASC
Precipitaciones de 00:00 a 06:00 en mm
DESCASC
Precipitaciones de 06:00 a 12:00 en mm
DESCASC
Precipitaciones de 12:00 a 18:00 en mm
DESCASC
Precipitaciones de 18:00 a 24:00 en mm
DESCASC
23-05-2019 22 (15:00) 6.2 (03:10) 14.1 9.72 (15:40) 5 (23:50) 1.4 0 0 0 1.4
22-05-2019 20.5 (17:10) 3.1 (06:50) 11.8 7.78 (13:00) 4.72 (00:10) 0 0 0 0 0
21-05-2019 16.3 (13:40) 2.2 (06:40) 9.2 8.33 (19:50) 5.83 (23:00) 0 0 0 0 0
20-05-2019 14.3 (16:20) 1 (06:50) 7.7 8.61 (16:30) 5.28 (23:20) 0 0 0 0 0
19-05-2019 9.1 (13:40) 3.5 (00:00) 6.3 11.94 (09:10) 6.94 (09:10) 0 0 0 0 0
18-05-2019 11.2 (14:50) 1.7 (00:00) 6.4 11.94 (18:00) 7.22 (17:20) 0.2 0 0 0 0.2
17-05-2019 9 (00:00) 2.4 (00:00) 5.7 18.89 (12:20) 11.11 (11:00) 16 13.8 2.2 0 0
16-05-2019 23.9 (16:10) 6.4 (00:00) 15.1 9.72 (15:40) 5.56 (15:40) 0.6 0 0 0 0.6
15-05-2019 22.9 (15:30) 6.9 (00:00) 14.9 8.89 (15:50) 5.83 (13:20) 0 0 0 0 0
14-05-2019 24.1 (16:10) 2.2 (00:00) 13.2 13.33 (01:00) 8.33 (00:30) 0 0 0 0 0
13-05-2019 18.3 (17:00) 6.2 (00:00) 12.2 18.89 (13:20) 10.83 (08:20) 0 0 0 0 0
12-05-2019 17.2 (15:40) 3.1 (00:00) 10.2 11.94 (09:30) 7.22 (09:10) 0 0 0 0 0
11-05-2019 13.9 (16:00) 4.9 (00:00) 9.4 13.06 (19:00) 8.89 (20:20) 0 0 0 0 0
10-05-2019 17.8 (18:40) 7.5 (00:00) 12.6 12.22 (00:10) 6.11 (12:50) 2.6 1.2 1.2 0.2 0
09-05-2019 13.9 (18:20) 4 (00:00) 8.9 14.44 (02:50) 8.33 (03:00) 2.2 0 0 0 2.2
08-05-2019 16.3 (15:40) 7.3 (00:00) 11.8 21.39 (18:10) 10 (18:10) 2.6 0.2 2.4 0 0
07-05-2019 19 (14:50) 4.2 (00:00) 11.6 14.44 (14:40) 7.5 (14:00) 0 0 0 0 0
06-05-2019 19.7 (16:10) -2.3 (-00:0) 8.7 7.5 (18:10) 4.44 (00:10) 0 0 0 0 0
05-05-2019 11.4 (17:30) -0.1 (00:00) 5.6 16.39 (06:00) 11.39 (06:00) 0 0 0 0 0
04-05-2019 11.9 (16:10) 0.7 (00:00) 6.3 12.5 (17:00) 8.06 (17:00) 0 0 0 0 0
03-05-2019 8 (16:30) 2 (00:00) 5 12.78 (16:30) 8.89 (12:50) 1 0 0.8 0.2 0
02-05-2019 13.8 (16:10) 3.8 (07:50) 8.8 11.67 (22:40) 6.94 (22:40) 0 0 0 0 0
01-05-2019 19.1 (13:30) 3.4 (00:00) 11.3 8.89 (23:50) 5.28 (23:20) 0.4 0 0 0.4 0
30-04-2019 17.9 (15:50) 4.9 (00:00) 11.4 9.44 (19:20) 6.39 (20:10) 0 0 0 0 0
29-04-2019 18.6 (15:10) 3.6 (00:00) 11.1 8.33 (14:40) 4.17 (13:30) 0 0 0 0 0
28-04-2019 17.4 (17:10) 1.4 (00:00) 9.4 10 (13:10) 5.56 (13:20) 0 0 0 0 0
27-04-2019 13.7 (17:50) 0.2 (00:00) 6.9 7.78 (19:50) 5 (23:30) 0 0 0 0 0
26-04-2019 11.7 (16:30) 1.6 (00:00) 6.6 10.83 (13:30) 5.28 (13:30) 0.2 0 0 0.2 0

Gráficas

Temp. máximas Temp. mínimas Temp. medias Precipitaciones Rachas de viento máximas Velocidades máximas media en intervalos de 10 minutos

Datos horarios

Fecha y hora oficial Temperatura (ºC) Velocidad del viento (km/h) Dirección del viento Racha (km/h) Dirección de racha Precipitación (mm) Presión (hPa) Tendencia (hPa) Humedad (%)
2019-05-25 23:00:00 7.4 18 Norte 41 Norte 0 -- -- 81
2019-05-25 22:00:00 7.6 17 Norte 47 Norte 0 -- -- 83
2019-05-25 21:00:00 7.8 18 Norte 36 Norte 0 -- -- 85
2019-05-25 20:00:00 8.1 14 Norte 35 Norte 0 -- -- 84
2019-05-25 19:00:00 9 17 Norte 33 Norte 0 -- -- 81
2019-05-25 18:00:00 9.9 26 Norte 40 Norte 0 -- -- 75
2019-05-25 17:00:00 11.2 26 Norte 49 Norte 0 -- -- 69
2019-05-25 16:00:00 10.4 31 Norte 53 Norte 0 -- -- 76
2019-05-25 15:00:00 10.4 27 Norte 42 Norte 0 -- -- 77
2019-05-25 14:00:00 9.1 26 Norte 45 Norte 0 -- -- 81
2019-05-25 13:00:00 8.8 21 Norte 48 Noroeste 0 -- -- 86
2019-05-25 12:00:00 8.6 21 Norte 41 Norte 0 -- -- 84
2019-05-25 11:00:00 7.1 23 Norte 45 Norte 0 -- -- 89
2019-05-25 10:00:00 6.2 22 Norte 45 Norte 0 -- -- 91
2019-05-25 09:00:00 6.3 21 Norte 46 Norte 0 -- -- 89
2019-05-25 08:00:00 5.9 22 Norte 39 Noroeste 0 -- -- 91
2019-05-25 07:00:00 5.8 23 Norte 40 Noroeste 0 -- -- 91
2019-05-25 06:00:00 6.3 21 Norte 41 Norte 0 -- -- 90
2019-05-25 05:00:00 6.4 22 Norte 37 Norte 0 -- -- 92
2019-05-25 04:00:00 6.5 19 Norte 42 Norte 0 -- -- 93
2019-05-25 03:00:00 6.5 19 Norte 39 Norte 0 -- -- 94
2019-05-25 02:00:00 6.3 16 Norte 38 Norte 0 -- -- 96
2019-05-25 01:00:00 6.4 21 Norte 40 Norte 0 -- -- 96
2019-05-25 00:00:00 6.7 18 Norte 37 Norte 0 -- -- 94
2019-05-24 23:00:00 6.7 26 Norte 42 Norte 0 -- -- 93
2019-05-24 22:00:00 7 16 Norte 36 Norte 0 -- -- 92
2019-05-24 21:00:00 6.9 23 Norte 44 Norte 0 -- -- 92
2019-05-24 20:00:00 7.7 23 Norte 49 Norte 0 -- -- 86
2019-05-24 19:00:00 8.7 25 Norte 42 Norte 0 -- -- 80
2019-05-24 18:00:00 10.1 24 Norte 44 Norte 0 -- -- 74
2019-05-24 17:00:00 10.7 22 Norte 41 Norte 0 -- -- 74
2019-05-24 16:00:00 10.6 24 Norte 43 Noroeste 0 -- -- 80
2019-05-24 15:00:00 10 23 Norte 37 Norte 0 -- -- 79
2019-05-24 14:00:00 8.1 19 Norte 36 Norte 0 -- -- 91
2019-05-24 13:00:00 7.9 23 Norte 47 Noroeste 0 -- -- 90
2019-05-24 12:00:00 7.8 24 Norte 42 Norte 0 -- -- 89
2019-05-24 11:00:00 7.4 24 Norte 40 Norte 0 -- -- 91
2019-05-24 10:00:00 8.4 20 Norte 31 Nordeste 0 -- -- 89
2019-05-24 09:00:00 7.4 11 Norte 28 Nordeste 0 -- -- 92
2019-05-24 08:00:00 7.1 13 Norte 26 Nordeste 2 -- -- 94
2019-05-24 07:00:00 7.3 15 Norte 29 Norte 0 -- -- 92
2019-05-24 06:00:00 7.3 17 Norte 32 Norte 0.2 -- -- 93
2019-05-24 05:00:00 7.4 15 Norte 32 Norte 1.6 -- -- 91
2019-05-24 04:00:00 7.9 18 Norte 28 Norte 0 -- -- 91
2019-05-24 03:00:00 8.4 14 Norte 27 Norte 0 -- -- 91
2019-05-24 02:00:00 8.6 18 Norte 31 Norte 0.8 -- -- 92
2019-05-24 01:00:00 9.5 15 Norte 33 Noroeste 0.2 -- -- 91
2019-05-24 00:00:00 10.5 12 Norte 27 Norte 0.2 -- -- 88
2019-05-23 23:00:00 12 13 Norte 27 Norte 0.2 -- -- 82
2019-05-23 22:00:00 11.2 9 Norte 19 Norte 0 -- -- 89
2019-05-23 21:00:00 13 5 Noroeste 28 Sudeste 1 -- -- 81
2019-05-23 20:00:00 15.9 7 Nordeste 27 Este 0 -- -- 60
2019-05-23 19:00:00 16.7 15 Este 27 Este 0 -- -- 60
2019-05-23 18:00:00 18.8 2 Nordeste 15 Este 0 -- -- 56
2019-05-23 17:00:00 20.2 8 Nordeste 22 Sudoeste 0 -- -- 52
2019-05-23 16:00:00 21.7 17 Oeste 35 Sudoeste 0 -- -- 40
2019-05-23 15:00:00 22 14 Sudoeste 32 Sudoeste 0 -- -- 43
2019-05-23 14:00:00 20.7 9 Sur 24 Oeste 0 -- -- 48
2019-05-23 13:00:00 18.8 10 Sudeste 18 Sudeste 0 -- -- 50
2019-05-23 12:00:00 18.5 6 Sudeste 11 Sudeste 0 -- -- 54
2019-05-23 11:00:00 17 5 Sudeste 14 Sudeste 0 -- -- 53
2019-05-23 10:00:00 16 6 Sudeste 11 Sudeste 0 -- -- 60
2019-05-23 09:00:00 11.5 5 Norte 12 Norte 0 -- -- 79
2019-05-23 08:00:00 9.4 8 Norte 13 Norte 0 -- -- 81
2019-05-23 07:00:00 7.4 8 Norte 13 Norte 0 -- -- 84
2019-05-23 06:00:00 6.2 7 Norte 14 Norte 0 -- -- 85
2019-05-23 05:00:00 6.4 10 Norte 15 Norte 0 -- -- 84
2019-05-23 04:00:00 6.3 7 Norte -- -- 0 -- -- 83
2019-05-23 03:00:00 6.3 6 Norte 12 Norte 0 -- -- 82
2019-05-23 02:00:00 7.2 8 Norte 11 Norte 0 -- -- 79
2019-05-23 01:00:00 8 7 Norte 13 Norte 0 -- -- 76
2019-05-23 00:00:00 9.8 7 Norte 11 Norte 0 -- -- 70
2019-05-22 23:00:00 11 6 Norte 12 Noroeste 0 -- -- 66
2019-05-22 22:00:00 12.5 9 Norte 13 Nordeste 0 -- -- 63
2019-05-22 21:00:00 15.2 5 Norte 15 Nordeste 0 -- -- 56
2019-05-22 20:00:00 17.2 5 Nordeste 18 Nordeste 0 -- -- 49
2019-05-22 19:00:00 19.1 9 Nordeste 20 Este 0 -- -- 44
2019-05-22 18:00:00 19.2 9 Este 22 Norte 0 -- -- 42
2019-05-22 17:00:00 20.1 8 Norte 19 Nordeste 0 -- -- 45
2019-05-22 16:00:00 19.8 9 Sur 19 Nordeste 0 -- -- 39
2019-05-22 15:00:00 18.6 7 Nordeste 18 Sur 0 -- -- 39
2019-05-22 14:00:00 18.6 6 Nordeste 26 Norte 0 -- -- 39
2019-05-22 13:00:00 18.3 14 Norte 28 Norte 0 -- -- 43
2019-05-22 12:00:00 17.4 13 Norte 27 Noroeste 0 -- -- 45
2019-05-22 11:00:00 16.5 12 Norte 22 Noroeste 0 -- -- 49
2019-05-22 10:00:00 15.3 5 Sur 10 Sudeste 0 -- -- 34
2019-05-22 09:00:00 10.6 3 Nordeste 8 Norte 0 -- -- 46
2019-05-22 08:00:00 5.5 6 Norte 14 Norte 0 -- -- 52
2019-05-22 07:00:00 3.2 7 Norte 15 Norte 0 -- -- 53
2019-05-22 06:00:00 3.8 12 Norte 15 Norte 0 -- -- 49
2019-05-22 05:00:00 4.5 13 Norte 17 Norte 0 -- -- 51
2019-05-22 04:00:00 4.7 6 Norte 10 Norte 0 -- -- 64
2019-05-22 03:00:00 6.4 4 Norte 20 Norte 0 -- -- 68
2019-05-22 02:00:00 7.2 10 Norte 18 Norte 0 -- -- 76
2019-05-22 01:00:00 7.5 14 Norte 26 Norte 0 -- -- 76
2019-05-22 00:00:00 8.1 19 Norte 28 Norte 0 -- -- 73
2019-05-21 23:00:00 9.4 21 Norte 28 Norte 0 -- -- 68
2019-05-21 22:00:00 9.9 12 Norte 24 Nordeste 0 -- -- 65
2019-05-21 21:00:00 12.2 13 Nordeste 29 Norte 0 -- -- 53
2019-05-21 20:00:00 13.8 15 Nordeste 30 Norte 0 -- -- 49
2019-05-21 19:00:00 14.3 14 Nordeste 28 Norte 0 -- -- 46
2019-05-21 18:00:00 15.7 14 Norte 24 Norte 0 -- -- 45
2019-05-21 17:00:00 15.5 11 Norte 22 Norte 0 -- -- 45
2019-05-21 16:00:00 15.7 9 Nordeste 24 Nordeste 0 -- -- 45
2019-05-21 15:00:00 14.4 12 Nordeste 27 Este 0 -- -- 46
2019-05-21 14:00:00 15.2 12 Norte 24 Norte 0 -- -- 44
2019-05-21 13:00:00 15.3 11 Norte 24 Noroeste 0 -- -- 45
2019-05-21 12:00:00 14.5 12 Nordeste 23 Norte 0 -- -- 43
2019-05-21 11:00:00 13.6 12 Norte 22 Nordeste 0 -- -- 49
2019-05-21 10:00:00 12.1 10 Nordeste 19 Norte 0 -- -- 48
2019-05-21 09:00:00 10.2 10 Norte 15 Norte 0 -- -- 63
2019-05-21 08:00:00 5.3 5 Norte 14 Norte 0 -- -- 77
2019-05-21 07:00:00 2.5 8 Norte 12 Norte 0 -- -- 83
2019-05-21 06:00:00 2.4 8 Norte 12 Norte 0 -- -- 82
2019-05-21 05:00:00 3 3 Norte 13 Norte 0 -- -- 78
2019-05-21 04:00:00 3.7 5 Nordeste 11 Norte 0 -- -- 78
2019-05-21 03:00:00 4.8 3 Nordeste 22 Noroeste 0 -- -- 79
2019-05-21 02:00:00 6 8 Noroeste 23 Noroeste 0 -- -- 81
2019-05-21 01:00:00 6.1 14 Norte 25 Noroeste 0 -- -- 82
2019-05-21 00:00:00 6.4 12 Norte 28 Noroeste 0 -- -- 79
2019-05-20 23:00:00 7.2 12 Norte 24 Norte 0 -- -- 77
2019-05-20 22:00:00 7.5 12 Norte 23 Norte 0 -- -- 75
2019-05-20 21:00:00 9.5 12 Norte 22 Norte 0 -- -- 67
2019-05-20 20:00:00 11 8 Nordeste 18 Este 0 -- -- 61
2019-05-20 19:00:00 11.7 11 Nordeste 20 Norte 0 -- -- 58
2019-05-20 18:00:00 12.3 14 Este 26 Este 0 -- -- 57
2019-05-20 17:00:00 12.5 9 Nordeste 31 Sudeste 0 -- -- 55
2019-05-20 16:00:00 13.6 5 Este 23 Nordeste 0 -- -- 49
2019-05-20 15:00:00 13 4 Norte 14 Sudeste 0 -- -- 53
2019-05-20 14:00:00 13.3 6 Sur 17 Norte 0 -- -- 51
2019-05-20 13:00:00 12.1 7 Norte 22 Norte 0 -- -- 53
2019-05-20 12:00:00 11.9 12 Norte 26 Nordeste 0 -- -- 51
2019-05-20 11:00:00 10.8 10 Norte 18 Norte 0 -- -- 53
2019-05-20 10:00:00 9.9 6 Sudeste 17 Este 0 -- -- 57
2019-05-20 09:00:00 7.4 10 Norte 15 Norte 0 -- -- 63
2019-05-20 08:00:00 3.4 5 Norte 13 Norte 0 -- -- 82
2019-05-20 07:00:00 1.2 8 Norte 12 Noroeste 0 -- -- 86
2019-05-20 06:00:00 1.5 8 Norte 12 Norte 0 -- -- 85
2019-05-20 05:00:00 2.6 4 Nordeste 17 Norte 0 -- -- 83
2019-05-20 04:00:00 2.6 10 Norte 22 Norte 0 -- -- 85
2019-05-20 03:00:00 3.4 17 Norte 24 Norte 0 -- -- 83
2019-05-20 02:00:00 4.1 17 Norte 25 Norte 0 -- -- 81
2019-05-20 01:00:00 5.3 16 Norte 24 Norte 0 -- -- 79
2019-05-20 00:00:00 5.4 18 Norte 30 Norte 0 -- -- 81
2019-05-19 23:00:00 5.5 19 Norte 29 Norte 0 -- -- 81
2019-05-19 22:00:00 5.7 23 Norte 36 Norte 0 -- -- 80
2019-05-19 21:00:00 6.3 19 Norte 30 Norte 0 -- -- 80
2019-05-19 20:00:00 6.7 19 Norte 28 Norte 0 -- -- 74
2019-05-19 19:00:00 8.5 16 Norte 34 Norte 0 -- -- 71
2019-05-19 18:00:00 8.7 23 Norte 39 Norte 0 -- -- 71
2019-05-19 17:00:00 7.5 21 Norte 36 Norte 0 -- -- 72
2019-05-19 16:00:00 7.1 21 Norte 35 Norte 0 -- -- 76
2019-05-19 15:00:00 7.2 17 Norte 33 Norte 0 -- -- 73
2019-05-19 14:00:00 8.1 22 Norte 42 Noroeste 0 -- -- 70
2019-05-19 13:00:00 7.1 23 Norte 36 Noroeste 0 -- -- 75
2019-05-19 12:00:00 6.1 17 Norte 40 Noroeste 0 -- -- 79
2019-05-19 11:00:00 5.3 15 Norte 39 Norte 0 -- -- 81
2019-05-19 10:00:00 5 15 Noroeste 43 Norte 0 -- -- 83
2019-05-19 09:00:00 4.6 23 Norte 41 Noroeste 0 -- -- 84
2019-05-19 08:00:00 4.1 17 Norte 34 Norte 0 -- -- 85
2019-05-19 07:00:00 3.8 17 Norte 30 Norte 0 -- -- 88
2019-05-19 06:00:00 3.6 7 Noroeste 22 Noroeste 0 -- -- 87
2019-05-19 05:00:00 3.8 10 Norte 26 Norte 0 -- -- 83
2019-05-19 04:00:00 3.7 17 Norte 29 Norte 0 -- -- 82
2019-05-19 03:00:00 3.7 5 Nordeste 16 Norte 0 -- -- 79
2019-05-19 02:00:00 3.7 8 Nordeste 33 Noroeste 0 -- -- 78
2019-05-19 01:00:00 3.9 20 Norte 40 Noroeste 0 -- -- 80
2019-05-19 00:00:00 3.9 18 Norte 29 Norte 0 -- -- 87
2019-05-18 23:00:00 4.2 13 Norte 24 Norte 0 -- -- 88
2019-05-18 22:00:00 4.7 14 Norte 23 Norte 0 -- -- 85
2019-05-18 21:00:00 5.1 14 Norte 30 Noroeste 0.2 -- -- 83
2019-05-18 20:00:00 6.1 11 Norte 27 Norte 0 -- -- 79
2019-05-18 19:00:00 8.1 15 Norte 39 Norte 0 -- -- 65
2019-05-18 18:00:00 8.5 20 Noroeste 43 Noroeste 0 -- -- 62
2019-05-18 17:00:00 10.1 18 Noroeste 39 Noroeste 0 -- -- 60
2019-05-18 16:00:00 9.9 23 Norte 39 Noroeste 0 -- -- 59
2019-05-18 15:00:00 10.7 17 Noroeste 37 Norte 0 -- -- 59
2019-05-18 14:00:00 9.2 12 Norte 31 Norte 0 -- -- 57
2019-05-18 13:00:00 9 12 Norte 31 Norte 0 -- -- 63
2019-05-18 12:00:00 8.4 14 Norte 27 Norte 0 -- -- 61
2019-05-18 11:00:00 7.2 12 Norte 29 Norte 0 -- -- 60
2019-05-18 10:00:00 6.9 8 Noroeste 37 Noroeste 0 -- -- 62
2019-05-18 09:00:00 6.1 10 Norte 34 Noroeste 0 -- -- 62
2019-05-18 08:00:00 3.9 8 Noroeste 13 Noroeste 0 -- -- 84
2019-05-18 07:00:00 2 3 Norte 6 Noroeste 0 -- -- 90
2019-05-18 06:00:00 1.8 2 Noroeste 14 Norte 0 -- -- 88
2019-05-18 05:00:00 2.6 4 Noroeste 15 Noroeste 0 -- -- 84
2019-05-18 04:00:00 3.1 12 Norte 22 Noroeste 0 -- -- 82
2019-05-18 03:00:00 3.5 13 Noroeste 22 Noroeste 0 -- -- 81
2019-05-18 02:00:00 3.6 10 Norte 26 Norte 0 -- -- 81
2019-05-18 01:00:00 3.6 14 Noroeste 24 Noroeste 0 -- -- 83
2019-05-18 00:00:00 3.6 9 Noroeste 44 Noroeste 0 -- -- 84
2019-05-17 23:00:00 3.8 24 Norte 41 Noroeste 0 -- -- 85
2019-05-17 22:00:00 4.2 21 Norte 37 Norte 0 -- -- 85
2019-05-17 21:00:00 4.5 14 Norte 35 Noroeste 0 -- -- 85
2019-05-17 20:00:00 5.4 24 Norte 40 Norte 0 -- -- 80
2019-05-17 19:00:00 6.3 24 Norte 46 Noroeste 0 -- -- 81
2019-05-17 18:00:00 5.6 28 Norte 52 Noroeste 0 -- -- 83
2019-05-17 17:00:00 5 25 Norte 46 Noroeste 0 -- -- 87
2019-05-17 16:00:00 5.5 17 Norte 32 Norte 0 -- -- 86
2019-05-17 15:00:00 5 14 Norte 40 Norte 0 -- -- 86
2019-05-17 14:00:00 5.2 18 Norte 59 Norte 0 -- -- 83
2019-05-17 13:00:00 5.5 32 Norte 68 Noroeste 0 -- -- 89
2019-05-17 12:00:00 5.3 31 Norte 65 Noroeste 0.2 -- -- 88
2019-05-17 11:00:00 5 40 Norte 63 Norte 0.4 -- -- 91
2019-05-17 10:00:00 5.2 26 Noroeste 50 Noroeste 0.4 -- -- 93
2019-05-17 09:00:00 5 22 Noroeste 45 Norte 0.2 -- -- 95
2019-05-17 08:00:00 3.9 2 Sur 7 Este 0.8 -- -- 96
2019-05-17 07:00:00 3.5 2 Sudeste 11 Sudeste 0.2 -- -- 95
2019-05-17 06:00:00 3.4 4 Sur 31 Norte 0.4 -- -- 94
2019-05-17 05:00:00 3.2 17 Norte 39 Norte 0.8 -- -- 94
2019-05-17 04:00:00 2.7 14 Norte 33 Norte 1 -- -- 94
2019-05-17 03:00:00 2.9 18 Norte 45 Norte 2 -- -- 93
2019-05-17 02:00:00 3.6 19 Norte 42 Noroeste 3.4 -- -- 91
2019-05-17 01:00:00 6.5 26 Norte 44 Norte 6.2 -- -- 89
2019-05-17 00:00:00 9 12 Nordeste 26 Nordeste 0.4 -- -- 92
2019-05-16 23:00:00 10.6 9 Norte 23 Norte 0 -- -- 84
2019-05-16 22:00:00 11.2 13 Norte 22 Norte 0 -- -- 81
2019-05-16 21:00:00 12.3 10 Norte 18 Noroeste 0.2 -- -- 73
2019-05-16 20:00:00 14.5 10 Norte 24 Nordeste 0 -- -- 55
2019-05-16 19:00:00 16.4 17 Nordeste 29 Nordeste 0 -- -- 48
2019-05-16 18:00:00 18.7 9 Norte 24 Nordeste 0 -- -- 45
2019-05-16 17:00:00 22.1 8 Sur 35 Sudoeste 0 -- -- 37
2019-05-16 16:00:00 23.7 14 Sudoeste 35 Sudeste 0 -- -- 36
2019-05-16 15:00:00 22.5 18 Sudeste 30 Sudeste 0 -- -- 39
2019-05-16 14:00:00 21.2 16 Sudeste 31 Sudeste 0 -- -- 36
2019-05-16 13:00:00 19.1 13 Sudeste 23 Sudeste 0 -- -- 38
2019-05-16 12:00:00 17.5 6 Sudeste 14 Sudeste 0 -- -- 34
2019-05-16 11:00:00 16.3 9 Sudeste 15 Sur 0 -- -- 38
2019-05-16 10:00:00 15.5 6 Sur 9 Sur 0 -- -- 36
2019-05-16 09:00:00 12.1 0 Calma 8 Norte 0 -- -- 42
2019-05-16 08:00:00 9 4 Norte 15 Norte 0 -- -- 53
2019-05-16 07:00:00 6.8 11 Norte 14 Norte 0 -- -- 55
2019-05-16 06:00:00 6.9 4 Nordeste 18 Norte 0 -- -- 48
2019-05-16 05:00:00 6.6 11 Norte 18 Noroeste 0 -- -- 56
2019-05-16 04:00:00 7.2 13 Norte 17 Noroeste 0 -- -- 52
2019-05-16 03:00:00 7.1 12 Norte 15 Norte 0 -- -- 56
2019-05-16 02:00:00 7.7 12 Norte 15 Norte 0 -- -- 57
2019-05-16 01:00:00 8.4 6 Norte 16 Noroeste 0 -- -- 57
2019-05-16 00:00:00 7.7 2 Norte 9 Oeste 0 -- -- 61
2019-05-15 23:00:00 9.8 2 Oeste 12 Norte 0 -- -- 54
2019-05-15 22:00:00 12.3 4 Noroeste 21 Norte 0 -- -- 47
2019-05-15 21:00:00 16 13 Norte 27 Noroeste 0 -- -- 35
2019-05-15 20:00:00 18.8 19 Norte 30 Noroeste 0 -- -- 33
2019-05-15 19:00:00 19.9 21 Norte 32 Norte 0 -- -- 32
2019-05-15 18:00:00 20.5 20 Norte 31 Norte 0 -- -- 28
2019-05-15 17:00:00 22 17 Norte 32 Norte 0 -- -- 31
2019-05-15 16:00:00 22.8 15 Norte 32 Noroeste 0 -- -- 28
2019-05-15 15:00:00 22.5 16 Norte 32 Noroeste 0 -- -- 27
2019-05-15 14:00:00 21.5 18 Norte 31 Norte 0 -- -- 25
2019-05-15 13:00:00 21 17 Norte 31 Norte 0 -- -- 23
2019-05-15 12:00:00 20.3 19 Norte 31 Norte 0 -- -- 25
2019-05-15 11:00:00 19.4 15 Norte 31 Norte 0 -- -- 28
2019-05-15 10:00:00 18.4 16 Norte 31 Norte 0 -- -- 29
2019-05-15 09:00:00 16.7 13 Norte 27 Norte 0 -- -- 28
2019-05-15 08:00:00 13.6 16 Noroeste 26 Norte 0 -- -- 34
2019-05-15 07:00:00 9.4 14 Noroeste 21 Norte 0 -- -- 40
2019-05-15 06:00:00 7.9 4 Nordeste 12 Noroeste 0 -- -- 46
2019-05-15 05:00:00 8.7 8 Norte 14 Norte 0 -- -- 45
2019-05-15 04:00:00 10.3 6 Norte 11 Noroeste 0 -- -- 41
2019-05-15 03:00:00 12 5 Norte 21 Norte 0 -- -- 39
2019-05-15 02:00:00 12.2 16 Norte 21 Noroeste 0 -- -- 37
2019-05-15 01:00:00 10.7 11 Norte 22 Noroeste 0 -- -- 41
2019-05-15 00:00:00 11.2 15 Noroeste 22 Noroeste 0 -- -- 42
2019-05-14 23:00:00 11.4 9 Norte 24 Norte 0 -- -- 43
2019-05-14 22:00:00 14.9 17 Noroeste 24 Noroeste 0 -- -- 36
2019-05-14 21:00:00 17.6 14 Norte 21 Norte 0 -- -- 33
2019-05-14 20:00:00 21.3 11 Nordeste 26 Nordeste 0 -- -- 25
2019-05-14 19:00:00 22.9 11 Nordeste 30 Este 0 -- -- 24
2019-05-14 18:00:00 23.7 13 Nordeste 25 Este 0 -- -- 24
2019-05-14 17:00:00 23.9 12 Este 24 Sudeste 0 -- -- 26
2019-05-14 16:00:00 23.8 9 Sudeste 17 Sudeste 0 -- -- 25
2019-05-14 15:00:00 22.8 8 Sur 19 Sur 0 -- -- 32
2019-05-14 14:00:00 20.6 8 Sur 18 Sur 0 -- -- 40
2019-05-14 13:00:00 19.5 10 Sur 26 Sur 0 -- -- 42
2019-05-14 12:00:00 17.5 8 Sur 15 Sudeste 0 -- -- 38
2019-05-14 11:00:00 15.6 5 Sudeste 12 Sudeste 0 -- -- 32
2019-05-14 10:00:00 14.2 4 Sur 9 Sudoeste 0 -- -- 31
2019-05-14 09:00:00 11.4 0 Calma 7 Norte 0 -- -- 35
2019-05-14 08:00:00 5.6 7 Norte 15 Norte 0 -- -- 47
2019-05-14 07:00:00 2.3 9 Norte 15 Norte 0 -- -- 51
2019-05-14 06:00:00 2.6 8 Norte 16 Norte 0 -- -- 50
2019-05-14 05:00:00 4.2 7 Norte 21 Noroeste 0 -- -- 43
2019-05-14 04:00:00 7.1 12 Norte 20 Noroeste 0 -- -- 34
2019-05-14 03:00:00 8.1 15 Noroeste 36 Norte 0 -- -- 35
2019-05-14 02:00:00 10 21 Norte 44 Noroeste 0 -- -- 28
2019-05-14 01:00:00 10.2 30 Norte 48 Noroeste 0 -- -- 27
2019-05-14 00:00:00 9.6 20 Noroeste 32 Noroeste 0 -- -- 35
2019-05-13 23:00:00 8.3 14 Noroeste 23 Noroeste 0 -- -- 42
2019-05-13 22:00:00 9.7 8 Noroeste 30 Norte 0 -- -- 39
2019-05-13 21:00:00 12.2 24 Norte 40 Norte 0 -- -- 33
2019-05-13 20:00:00 14.6 19 Norte 55 Noroeste 0 -- -- 29
2019-05-13 19:00:00 16.2 32 Norte 56 Norte 0 -- -- 27
2019-05-13 18:00:00 17.6 29 Norte 54 Norte 0 -- -- 25
2019-05-13 17:00:00 18.3 26 Norte 57 Norte 0 -- -- 22
2019-05-13 16:00:00 17.7 30 Norte 55 Norte 0 -- -- 26
2019-05-13 15:00:00 17.6 29 Norte 55 Norte 0 -- -- 27
2019-05-13 14:00:00 16.8 34 Norte 68 Norte 0 -- -- 26
2019-05-13 13:00:00 16.9 33 Norte 62 Norte 0 -- -- 22
2019-05-13 12:00:00 15.1 36 Norte 63 Norte 0 -- -- 22
2019-05-13 11:00:00 13.8 36 Norte 61 Norte 0 -- -- 20
2019-05-13 10:00:00 12.3 27 Norte 54 Norte 0 -- -- 22
2019-05-13 09:00:00 11.5 27 Norte 56 Norte 0 -- -- 20
2019-05-13 08:00:00 9 31 Norte 51 Norte 0 -- -- 26
2019-05-13 07:00:00 7.2 20 Noroeste 40 Noroeste 0 -- -- 33
2019-05-13 06:00:00 6.7 14 Noroeste 27 Noroeste 0 -- -- 38
2019-05-13 05:00:00 6.8 17 Noroeste 32 Noroeste 0 -- -- 44
2019-05-13 04:00:00 6.4 19 Noroeste 40 Norte 0 -- -- 50
2019-05-13 03:00:00 6.3 20 Norte 39 Noroeste 0 -- -- 56
2019-05-13 02:00:00 6.4 17 Norte 39 Norte 0 -- -- 58
2019-05-13 01:00:00 6.5 28 Noroeste 47 Norte 0 -- -- 66
2019-05-13 00:00:00 7.3 21 Norte 35 Norte 0 -- -- 62
2019-05-12 23:00:00 8.5 11 Norte 35 Norte 0 -- -- 55
2019-05-12 22:00:00 10.3 23 Norte 36 Norte 0 -- -- 57
2019-05-12 21:00:00 12 18 Norte 37 Norte 0 -- -- 52
2019-05-12 20:00:00 14.4 20 Norte 43 Nordeste 0 -- -- 42
2019-05-12 19:00:00 15.4 20 Nordeste 39 Norte 0 -- -- 34
2019-05-12 18:00:00 16.4 18 Norte 36 Norte 0 -- -- 25
2019-05-12 17:00:00 17 21 Norte 36 Nordeste 0 -- -- 25
2019-05-12 16:00:00 17 19 Nordeste 33 Nordeste 0 -- -- 17
2019-05-12 15:00:00 16.7 20 Norte 36 Nordeste 0 -- -- 15
2019-05-12 14:00:00 16.6 18 Norte 36 Noroeste 0 -- -- 20
2019-05-12 13:00:00 15.8 14 Nordeste 31 Nordeste 0 -- -- 25
2019-05-12 12:00:00 15 14 Norte 35 Norte 0 -- -- 21
2019-05-12 11:00:00 12.8 17 Norte 34 Norte 0 -- -- 21
2019-05-12 10:00:00 10.8 17 Norte 43 Noroeste 0 -- -- 31
2019-05-12 09:00:00 8.5 24 Norte 40 Norte 0 -- -- 33
2019-05-12 08:00:00 6.7 12 Norte 26 Norte 0 -- -- 43
2019-05-12 07:00:00 4.4 14 Norte 26 Noroeste 0 -- -- 54
2019-05-12 06:00:00 3.2 6 Noroeste 18 Norte 0 -- -- 65
2019-05-12 05:00:00 4.1 11 Norte 23 Norte 0 -- -- 63
2019-05-12 04:00:00 4.4 10 Norte -- -- 0 -- -- 65
2019-05-12 03:00:00 4.8 18 Norte 28 Norte 0 -- -- 64
2019-05-12 02:00:00 4.1 14 Norte 25 Norte 0 -- -- 83
2019-05-12 01:00:00 4.4 9 Noroeste 23 Norte 0 -- -- 85
2019-05-12 00:00:00 5.7 13 Norte 36 Norte 0 -- -- 81
2019-05-11 23:00:00 6.5 23 Norte 36 Norte 0 -- -- 80
2019-05-11 22:00:00 7.8 15 Norte 34 Norte 0 -- -- 71
2019-05-11 21:00:00 9.4 25 Norte 46 Norte 0 -- -- 61
2019-05-11 20:00:00 11.3 31 Norte 46 Norte 0 -- -- 50
2019-05-11 19:00:00 12.6 30 Norte 47 Norte 0 -- -- 52
2019-05-11 18:00:00 13.6 23 Norte 39 Norte 0 -- -- 50
2019-05-11 17:00:00 13.6 26 Norte 42 Norte 0 -- -- 52
2019-05-11 16:00:00 13.9 23 Norte 39 Norte 0 -- -- 51
2019-05-11 15:00:00 13.3 19 Norte 32 Norte 0 -- -- 55
2019-05-11 14:00:00 12.5 21 Norte 39 Norte 0 -- -- 59
2019-05-11 13:00:00 12.2 20 Norte 40 Norte 0 -- -- 62
2019-05-11 12:00:00 11.9 21 Norte 34 Norte 0 -- -- 66
2019-05-11 11:00:00 11.5 19 Norte 32 Norte 0 -- -- 68
2019-05-11 10:00:00 10.4 14 Norte 26 Norte 0 -- -- 78
2019-05-11 09:00:00 10.2 12 Norte 22 Norte 0 -- -- 77
2019-05-11 08:00:00 8.3 3 Sudeste 15 Noroeste 0 -- -- 85
2019-05-11 07:00:00 7.4 4 Norte 26 Norte 0 -- -- 86
2019-05-11 06:00:00 5.3 9 Norte 15 Noroeste 0 -- -- 82
2019-05-11 05:00:00 5.3 10 Noroeste 17 Norte 0 -- -- 84
2019-05-11 04:00:00 6.1 13 Noroeste 16 Noroeste 0 -- -- 85
2019-05-11 03:00:00 5.2 7 Norte 10 Norte 0 -- -- 85
2019-05-11 02:00:00 7.1 10 Noroeste 14 Noroeste 0 -- -- 81
2019-05-11 01:00:00 7.6 9 Norte 15 Norte 0 -- -- 81
2019-05-11 00:00:00 7.5 8 Norte 11 Norte 0 -- -- 81
2019-05-10 23:00:00 8.5 5 Norte 11 Nordeste 0 -- -- 79
2019-05-10 22:00:00 11.3 4 Nordeste 12 Noroeste 0 -- -- 72
2019-05-10 21:00:00 14.5 5 Oeste 17 Sudoeste 0 -- -- 61
2019-05-10 20:00:00 17.6 6 Oeste 26 Sudoeste 0 -- -- 53
2019-05-10 19:00:00 17.6 14 Sudoeste 26 Sudoeste 0 -- -- 52
2019-05-10 18:00:00 17.2 9 Oeste 24 Oeste 0 -- -- 59
2019-05-10 17:00:00 17.1 13 Oeste 32 Oeste 0 -- -- 59
2019-05-10 16:00:00 16.8 14 Oeste 28 Oeste 0 -- -- 63
2019-05-10 15:00:00 15.8 13 Oeste 37 Oeste 0 -- -- 64
2019-05-10 14:00:00 14.8 17 Oeste 28 Noroeste 0.2 -- -- 74
2019-05-10 13:00:00 15.5 21 Sudoeste 40 Oeste 0 -- -- 72
2019-05-10 12:00:00 15 15 Oeste 31 Oeste 0 -- -- 83
2019-05-10 11:00:00 14 10 Sudoeste 29 Oeste 0.2 -- -- 84
2019-05-10 10:00:00 12.6 12 Sudoeste 29 Sudoeste 0.2 -- -- 90
2019-05-10 09:00:00 12.7 11 Oeste 21 Oeste 0.2 -- -- 90
2019-05-10 08:00:00 11.2 3 Sudoeste 10 Oeste 0.2 -- -- 93
2019-05-10 07:00:00 11 5 Oeste 15 Sudoeste 0.4 -- -- 92
2019-05-10 06:00:00 11.1 8 Sudoeste 20 Sudoeste 0.4 -- -- 90
2019-05-10 05:00:00 11.6 7 Oeste 18 Oeste 0 -- -- 86
2019-05-10 04:00:00 11.7 10 Oeste 32 Oeste 0 -- -- 85
2019-05-10 03:00:00 11.5 12 Oeste 26 Oeste 0.2 -- -- 86
2019-05-10 02:00:00 11.6 6 Oeste 18 Sudoeste 0.4 -- -- 90
2019-05-10 01:00:00 11.9 12 Oeste 44 Oeste 0.2 -- -- 88
2019-05-10 00:00:00 12 12 Sudoeste 39 Sudoeste 0 -- -- 89
2019-05-09 23:00:00 12 13 Sudoeste 27 Oeste 0.4 -- -- 89
2019-05-09 22:00:00 11.6 15 Sudoeste 42 Sudoeste 0.6 -- -- 91
2019-05-09 21:00:00 10.3 7 Sudeste 22 Sur 0.6 -- -- 89
2019-05-09 20:00:00 11.5 7 Sudoeste 32 Sudoeste 0.6 -- -- 81
2019-05-09 19:00:00 13.6 12 Sudoeste 33 Sudoeste 0 -- -- 59
2019-05-09 18:00:00 13.4 14 Sudoeste 31 Sudoeste 0 -- -- 59
2019-05-09 17:00:00 12 16 Sudoeste 31 Sudoeste 0 -- -- 59
2019-05-09 16:00:00 11.2 21 Sudoeste 32 Oeste 0 -- -- 54
2019-05-09 15:00:00 11.4 17 Sudoeste 35 Sudoeste 0 -- -- 47
2019-05-09 14:00:00 13.3 14 Oeste 35 Oeste 0 -- -- 45
2019-05-09 13:00:00 13.3 19 Oeste 34 Sudoeste 0 -- -- 42
2019-05-09 12:00:00 10.1 19 Oeste 38 Sudoeste 0 -- -- 49
2019-05-09 11:00:00 8.7 19 Sudoeste 40 Oeste 0 -- -- 56
2019-05-09 10:00:00 8.2 23 Oeste 39 Sudoeste 0 -- -- 56
2019-05-09 09:00:00 7.2 9 Sur 28 Sur 0 -- -- 62
2019-05-09 08:00:00 4.7 8 Sur 29 Oeste 0 -- -- 69
2019-05-09 07:00:00 4.3 11 Sudoeste 31 Oeste 0 -- -- 67
2019-05-09 06:00:00 4.6 7 Oeste 36 Sudoeste 0 -- -- 71
2019-05-09 05:00:00 5.3 25 Oeste 47 Oeste 0 -- -- 69
2019-05-09 04:00:00 5.3 20 Oeste 45 Sudoeste 0 -- -- 65
2019-05-09 03:00:00 5.9 30 Oeste 52 Sudoeste 0 -- -- 63
2019-05-09 02:00:00 6.3 15 Oeste 36 Sudoeste 0 -- -- 61
2019-05-09 01:00:00 6.6 13 Oeste 36 Sudoeste 0 -- -- 62
2019-05-09 00:00:00 7.3 12 Oeste 40 Oeste 0 -- -- 59
2019-05-08 23:00:00 8.2 14 Oeste 48 Oeste 0 -- -- 50
2019-05-08 22:00:00 9.7 17 Oeste 36 Sudoeste 0 -- -- 54
2019-05-08 21:00:00 10.8 21 Oeste 50 Oeste 0 -- -- 50
2019-05-08 20:00:00 12.3 24 Oeste 46 Oeste 0 -- -- 46
2019-05-08 19:00:00 13.5 17 Oeste 77 Oeste 0 -- -- 42
2019-05-08 18:00:00 15 32 Oeste 71 Oeste 0 -- -- 38
2019-05-08 17:00:00 15.9 31 Sudoeste 71 Oeste 0 -- -- 39
2019-05-08 16:00:00 16 17 Oeste 62 Oeste 0 -- -- 47
2019-05-08 15:00:00 15.8 27 Oeste 58 Oeste 0 -- -- 48
2019-05-08 14:00:00 14.9 26 Sudoeste 48 Sudoeste 0 -- -- 62
2019-05-08 13:00:00 13.5 17 Sudoeste 56 Sudoeste 0 -- -- 71
2019-05-08 12:00:00 11.6 25 Sudoeste 54 Sudoeste 0.8 -- -- 86
2019-05-08 11:00:00 10.9 18 Sudoeste 44 Oeste 0.2 -- -- 87
2019-05-08 10:00:00 10.8 21 Sudoeste 51 Oeste 0.4 -- -- 88
2019-05-08 09:00:00 10.1 21 Sudoeste 54 Sudoeste 0 -- -- 90
2019-05-08 08:00:00 9.7 18 Sudoeste 36 Sudoeste 0.8 -- -- 90
2019-05-08 07:00:00 10 11 Sudoeste 35 Sudoeste 0.2 -- -- 87
2019-05-08 06:00:00 9.7 11 Sur 33 Sudoeste 0.2 -- -- 86
2019-05-08 05:00:00 9.9 15 Sudoeste 41 Sudoeste 0 -- -- 82
2019-05-08 04:00:00 10.4 15 Sudoeste 36 Sudoeste 0 -- -- 74
2019-05-08 03:00:00 10.8 19 Sudoeste 41 Sudoeste 0 -- -- 70
2019-05-08 02:00:00 11.3 14 Sudoeste 49 Oeste 0 -- -- 73
2019-05-08 01:00:00 12 16 Sudoeste 45 Oeste 0 -- -- 75
2019-05-08 00:00:00 12.7 10 Sudoeste 30 Sudoeste 0 -- -- 72
2019-05-07 23:00:00 13.3 12 Sudoeste 27 Sudoeste 0 -- -- 65
2019-05-07 22:00:00 13.6 7 Sudoeste 22 Sudoeste 0 -- -- 61
2019-05-07 21:00:00 14.7 9 Sudoeste 21 Sudoeste 0 -- -- 55
2019-05-07 20:00:00 15.7 10 Oeste 40 Oeste 0 -- -- 51
2019-05-07 19:00:00 16.7 20 Oeste 44 Oeste 0 -- -- 46
2019-05-07 18:00:00 17.8 19 Oeste 45 Oeste 0 -- -- 44
2019-05-07 17:00:00 17.7 27 Oeste 45 Oeste 0 -- -- 41
2019-05-07 16:00:00 17.5 21 Sudoeste 41 Sudoeste 0 -- -- 44
2019-05-07 15:00:00 18.5 17 Oeste 52 Oeste 0 -- -- 44
2019-05-07 14:00:00 17.9 27 Sudoeste 44 Sudoeste 0 -- -- 47
2019-05-07 13:00:00 18.1 19 Sudoeste 36 Sudoeste 0 -- -- 49
2019-05-07 12:00:00 16.7 11 Sudoeste 33 Sudoeste 0 -- -- 54
2019-05-07 11:00:00 14.2 10 Sur 21 Sudeste 0 -- -- 61
2019-05-07 10:00:00 10.6 8 Sur 12 Sudeste 0 -- -- 65
2019-05-07 09:00:00 9.4 3 Sudeste 8 Norte 0 -- -- 65
2019-05-07 08:00:00 5.4 5 Norte 10 Norte 0 -- -- 82
2019-05-07 07:00:00 4.3 7 Norte 11 Norte 0 -- -- 81
2019-05-07 06:00:00 4.7 9 Norte 12 Norte 0 -- -- 79
2019-05-07 05:00:00 5 8 Norte 12 Norte 0 -- -- 78
2019-05-07 04:00:00 6.4 6 Norte 9 Norte 0 -- -- 75
2019-05-07 03:00:00 6.8 8 Norte 13 Norte 0 -- -- 75
2019-05-07 02:00:00 6.5 6 Norte 10 Norte 0 -- -- 73
2019-05-07 01:00:00 6.9 8 Norte 13 Norte 0 -- -- 70
2019-05-07 00:00:00 7.7 11 Norte 15 Norte 0 -- -- 69
2019-05-06 23:00:00 8.4 9 Norte 14 Norte 0 -- -- 68
2019-05-06 22:00:00 9.9 13 Norte 15 Norte 0 -- -- 63
2019-05-06 21:00:00 13.3 5 Noroeste 11 Noroeste 0 -- -- 50
2019-05-06 20:00:00 16.3 9 Nordeste 22 Nordeste 0 -- -- 38
2019-05-06 19:00:00 17.1 15 Este 27 Este 0 -- -- 37
2019-05-06 18:00:00 18.6 10 Nordeste 23 Nordeste 0 -- -- 36
2019-05-06 17:00:00 18.8 9 Nordeste 21 Este 0 -- -- 33
2019-05-06 16:00:00 19.3 4 Oeste 16 Este 0 -- -- 33
2019-05-06 15:00:00 18.1 9 Este 22 Sudeste 0 -- -- 36
2019-05-06 14:00:00 17.4 10 Sur 21 Sudeste 0 -- -- 37
2019-05-06 13:00:00 15.7 9 Sudeste 19 Sur 0 -- -- 39
2019-05-06 12:00:00 14.3 10 Sudeste 22 Sudeste 0 -- -- 41
2019-05-06 11:00:00 13.6 10 Sur 16 Sur 0 -- -- 35
2019-05-06 10:00:00 10.8 6 Sur 11 Sur 0 -- -- 24
2019-05-06 09:00:00 7.1 0 Calma 9 Nordeste 0 -- -- 31
2019-05-06 08:00:00 1.1 5 Norte 11 Norte 0 -- -- 56
2019-05-06 07:00:00 -1.8 8 Norte 19 Norte 0 -- -- 56
2019-05-06 06:00:00 -2.3 10 Norte 17 Norte 0 -- -- 56
2019-05-06 05:00:00 -1.2 14 Norte 18 Norte 0 -- -- 51
2019-05-06 04:00:00 -1.7 11 Norte 15 Norte 0 -- -- 63
2019-05-06 03:00:00 -1.1 9 Norte 17 Noroeste 0 -- -- 69
2019-05-06 02:00:00 1.9 13 Noroeste 19 Noroeste 0 -- -- 57
2019-05-06 01:00:00 1.4 13 Noroeste 22 Norte 0 -- -- 66
2019-05-06 00:00:00 2.7 17 Noroeste 22 Noroeste 0 -- -- 62
2019-05-05 23:00:00 3.4 17 Norte 32 Noroeste 0 -- -- 59
2019-05-05 22:00:00 4.6 16 Noroeste 38 Norte 0 -- -- 55
2019-05-05 21:00:00 6.1 22 Norte 39 Norte 0 -- -- 50
2019-05-05 20:00:00 8.4 23 Norte 36 Norte 0 -- -- 40
2019-05-05 19:00:00 10.5 23 Norte 35 Norte 0 -- -- 33
2019-05-05 18:00:00 11.4 24 Norte 36 Norte 0 -- -- 31
2019-05-05 17:00:00 11 24 Norte 39 Norte 0 -- -- 34
2019-05-05 16:00:00 10.6 23 Norte 35 Norte 0 -- -- 32
2019-05-05 15:00:00 9.7 24 Norte 39 Noroeste 0 -- -- 34
2019-05-05 14:00:00 9.1 22 Noroeste 42 Norte 0 -- -- 36
2019-05-05 13:00:00 7 26 Norte 43 Norte 0 -- -- 29
2019-05-05 12:00:00 6 25 Norte 41 Nordeste 0 -- -- 33
2019-05-05 11:00:00 4.9 23 Norte 39 Norte 0 -- -- 35
2019-05-05 10:00:00 3.7 24 Norte 50 Norte 0 -- -- 54
2019-05-05 09:00:00 1.9 28 Norte 44 Norte 0 -- -- 66
2019-05-05 08:00:00 0.5 22 Norte 46 Norte 0 -- -- 76
2019-05-05 07:00:00 0.1 32 Norte 56 Norte 0 -- -- 78
2019-05-05 06:00:00 0.5 41 Norte 59 Norte 0 -- -- 77
2019-05-05 05:00:00 1.5 31 Norte 54 Norte 0 -- -- 80
2019-05-05 04:00:00 2 28 Norte 45 Norte 0 -- -- 85
2019-05-05 03:00:00 2.7 24 Norte 46 Norte 0 -- -- 81
2019-05-05 02:00:00 2.9 22 Norte 41 Norte 0 -- -- 81
2019-05-05 01:00:00 3.6 19 Norte 43 Norte 0 -- -- 82
2019-05-05 00:00:00 4.4 13 Nordeste 34 Norte 0 -- -- 86
2019-05-04 23:00:00 5.5 12 Norte 41 Nordeste 0 -- -- 81
2019-05-04 22:00:00 6.1 17 Norte 40 Norte 0 -- -- 75
2019-05-04 21:00:00 7.2 9 Norte 37 Norte 0 -- -- 72
2019-05-04 20:00:00 8.7 22 Norte 38 Norte 0 -- -- 66
2019-05-04 19:00:00 11 21 Norte 40 Norte 0 -- -- 55
2019-05-04 18:00:00 11.7 22 Norte 39 Noroeste 0 -- -- 55
2019-05-04 17:00:00 11.6 29 Norte 45 Norte 0 -- -- 49
2019-05-04 16:00:00 11.7 24 Norte 39 Norte 0 -- -- 51
2019-05-04 15:00:00 11.3 22 Norte 36 Norte 0 -- -- 47
2019-05-04 14:00:00 11 17 Norte 34 Norte 0 -- -- 53
2019-05-04 13:00:00 9.7 24 Norte 35 Norte 0 -- -- 53
2019-05-04 12:00:00 8.6 19 Norte 33 Nordeste 0 -- -- 60
2019-05-04 11:00:00 6.6 18 Nordeste 33 Norte 0 -- -- 62
2019-05-04 10:00:00 5.1 15 Nordeste 32 Norte 0 -- -- 70
2019-05-04 09:00:00 3.9 14 Norte 27 Norte 0 -- -- 73
2019-05-04 08:00:00 2.2 3 Oeste 26 Norte 0 -- -- 82
2019-05-04 07:00:00 1.9 12 Norte 26 Norte 0 -- -- 82
2019-05-04 06:00:00 0.7 0 Calma 8 Norte 0 -- -- 86
2019-05-04 05:00:00 1.5 2 Norte 26 Norte 0 -- -- 82
2019-05-04 04:00:00 1.9 9 Norte 26 Norte 0 -- -- 83
2019-05-04 03:00:00 2 15 Norte 31 Norte 0 -- -- 86
2019-05-04 02:00:00 2.2 10 Norte 35 Norte 0 -- -- 82
2019-05-04 01:00:00 2.6 13 Norte 33 Norte 0 -- -- 81
2019-05-04 00:00:00 3.1 11 Norte 33 Norte 0 -- -- 83
2019-05-03 23:00:00 3.8 12 Norte 30 Norte 0 -- -- 81
2019-05-03 22:00:00 3.8 17 Norte 31 Norte 0 -- -- 82
2019-05-03 21:00:00 4.1 15 Norte 32 Norte 0 -- -- 84
2019-05-03 20:00:00 4.9 17 Norte 39 Noroeste 0 -- -- 81
2019-05-03 19:00:00 5.8 25 Norte 43 Norte 0 -- -- 80
2019-05-03 18:00:00 6.4 24 Norte 43 Norte 0 -- -- 78
2019-05-03 17:00:00 6.6 27 Norte 46 Noroeste 0 -- -- 78
2019-05-03 16:00:00 7.1 27 Norte 45 Noroeste 0 -- -- 76
2019-05-03 15:00:00 6.6 19 Norte 37 Norte 0 -- -- 81
2019-05-03 14:00:00 5.6 22 Norte 38 Norte 0 -- -- 79
2019-05-03 13:00:00 5.7 27 Norte 44 Norte 0.2 -- -- 83
2019-05-03 12:00:00 3.5 14 Norte 31 Norte 0 -- -- 88
2019-05-03 11:00:00 2.4 16 Norte 26 Norte 0.8 -- -- 90
2019-05-03 10:00:00 2.5 21 Norte 44 Norte 0 -- -- 87
2019-05-03 09:00:00 3 29 Norte 39 Norte 0 -- -- 80
2019-05-03 08:00:00 2.5 20 Norte 35 Norte 0 -- -- 84
2019-05-03 07:00:00 2.1 16 Norte 29 Norte 0 -- -- 86
2019-05-03 06:00:00 2.3 10 Norte 24 Norte 0 -- -- 85
2019-05-03 05:00:00 2.9 17 Norte 35 Norte 0 -- -- 83
2019-05-03 04:00:00 3.1 18 Norte 31 Norte 0 -- -- 80
2019-05-03 03:00:00 3.3 17 Norte 34 Norte 0 -- -- 79
2019-05-03 02:00:00 3.5 20 Norte 34 Norte 0 -- -- 80
2019-05-03 01:00:00 4 22 Norte 35 Norte 0 -- -- 80
2019-05-03 00:00:00 4.2 20 Norte 36 Noroeste 0 -- -- 82
2019-05-02 23:00:00 5 19 Norte 42 Norte 0 -- -- 81
2019-05-02 22:00:00 5.8 22 Norte 36 Norte 0 -- -- 79
2019-05-02 21:00:00 7.6 19 Norte 35 Norte 0 -- -- 71
2019-05-02 20:00:00 9.8 19 Norte 35 Norte 0 -- -- 63
2019-05-02 19:00:00 11 20 Norte 33 Norte 0 -- -- 59
2019-05-02 18:00:00 12.4 21 Norte 33 Norte 0 -- -- 58
2019-05-02 17:00:00 13.5 17 Norte 30 Noroeste 0 -- -- 60
2019-05-02 16:00:00 13.4 17 Norte 26 Noroeste 0 -- -- 62
2019-05-02 15:00:00 12.1 15 Norte 32 Norte 0 -- -- 66
2019-05-02 14:00:00 11.4 18 Norte 32 Nordeste 0 -- -- 65
2019-05-02 13:00:00 11.2 14 Norte 25 Noroeste 0 -- -- 66
2019-05-02 12:00:00 10.1 12 Norte 28 Norte 0 -- -- 71
2019-05-02 11:00:00 7.1 19 Norte 30 Norte 0 -- -- 78
2019-05-02 10:00:00 6.1 18 Norte 30 Norte 0 -- -- 79
2019-05-02 09:00:00 4.4 21 Norte 31 Norte 0 -- -- 86
2019-05-02 08:00:00 4.2 16 Norte 36 Norte 0 -- -- 88
2019-05-02 07:00:00 4.3 23 Norte 35 Norte 0 -- -- 86
2019-05-02 06:00:00 4.7 17 Norte 28 Norte 0 -- -- 86
2019-05-02 05:00:00 4.9 18 Norte 32 Norte 0 -- -- 88
2019-05-02 04:00:00 5.1 18 Norte 30 Norte 0 -- -- 88
2019-05-02 03:00:00 5.3 19 Norte 35 Norte 0 -- -- 89
2019-05-02 02:00:00 5.7 19 Norte 30 Norte 0 -- -- 87
2019-05-02 01:00:00 6.2 18 Norte 31 Norte 0 -- -- 84
2019-05-02 00:00:00 6.8 18 Norte 32 Norte 0 -- -- 82
2019-05-01 23:00:00 8 16 Norte 27 Norte 0 -- -- 77
2019-05-01 22:00:00 9.2 15 Norte 26 Norte 0 -- -- 74
2019-05-01 21:00:00 11.5 14 Norte 25 Nordeste 0 -- -- 67
2019-05-01 20:00:00 14.4 17 Norte 28 Norte 0 -- -- 54
2019-05-01 19:00:00 15.7 14 Norte 28 Nordeste 0 -- -- 44
2019-05-01 18:00:00 14 9 Norte 25 Norte 0.2 -- -- 53
2019-05-01 17:00:00 15.8 5 Noroeste 20 Este 0 -- -- 55
2019-05-01 16:00:00 14.7 10 Nordeste 25 Norte 0.2 -- -- 55
2019-05-01 15:00:00 17.9 11 Sudoeste 29 Sudoeste 0 -- -- 39
2019-05-01 14:00:00 18.5 12 Sur 21 Sudeste 0 -- -- 37
2019-05-01 13:00:00 18.1 9 Sur 22 Sur 0 -- -- 37
2019-05-01 12:00:00 16.8 11 Sur 18 Sudeste 0 -- -- 33
2019-05-01 11:00:00 17.3 10 Sur 15 Sur 0 -- -- 39
2019-05-01 10:00:00 15.4 0 Calma 5 Nordeste 0 -- -- 33
2019-05-01 09:00:00 10.6 3 Norte 10 Norte 0 -- -- 48
2019-05-01 08:00:00 5.9 6 Norte 15 Norte 0 -- -- 57
2019-05-01 07:00:00 4.7 9 Norte 17 Norte 0 -- -- 57
2019-05-01 06:00:00 4.7 13 Norte 21 Norte 0 -- -- 58
2019-05-01 05:00:00 3.5 14 Norte 18 Norte 0 -- -- 67
2019-05-01 04:00:00 3.8 8 Norte 14 Norte 0 -- -- 68
2019-05-01 03:00:00 4.3 10 Norte 15 Norte 0 -- -- 71
2019-05-01 02:00:00 5.4 8 Norte 10 Norte 0 -- -- 71
2019-05-01 01:00:00 6.6 6 Noroeste 14 Norte 0 -- -- 69
2019-05-01 00:00:00 7.6 8 Norte 14 Norte 0 -- -- 67
2019-04-30 23:00:00 9.1 7 Noroeste 27 Norte 0 -- -- 61
2019-04-30 22:00:00 11.4 16 Norte 32 Norte 0 -- -- 57
2019-04-30 21:00:00 12.3 18 Norte 31 Norte 0 -- -- 47
2019-04-30 20:00:00 14.4 22 Norte 34 Norte 0 -- -- 36
2019-04-30 19:00:00 16.3 18 Norte 33 Norte 0 -- -- 33
2019-04-30 18:00:00 16.9 21 Norte 33 Norte 0 -- -- 30
2019-04-30 17:00:00 17.7 19 Norte 32 Norte 0 -- -- 28
2019-04-30 16:00:00 17.8 19 Norte 31 Norte 0 -- -- 29
2019-04-30 15:00:00 17.5 18 Norte 30 Norte 0 -- -- 39
2019-04-30 14:00:00 17.2 15 Norte 26 Noroeste 0 -- -- 38
2019-04-30 13:00:00 16.9 10 Norte 25 Noroeste 0 -- -- 35
2019-04-30 12:00:00 16.4 14 Noroeste 23 Norte 0 -- -- 40
2019-04-30 11:00:00 14.4 15 Norte 25 Norte 0 -- -- 40
2019-04-30 10:00:00 13.5 15 Norte 26 Norte 0 -- -- 40
2019-04-30 09:00:00 11.7 16 Norte 22 Norte 0 -- -- 48
2019-04-30 08:00:00 8.6 11 Noroeste 23 Noroeste 0 -- -- 58
2019-04-30 07:00:00 7.5 17 Noroeste 25 Noroeste 0 -- -- 59
2019-04-30 06:00:00 7.1 17 Noroeste 22 Noroeste 0 -- -- 66
2019-04-30 05:00:00 6.8 14 Noroeste 18 Noroeste 0 -- -- 65
2019-04-30 04:00:00 7.8 13 Norte 22 Noroeste 0 -- -- 64
2019-04-30 03:00:00 8.2 13 Noroeste 20 Norte 0 -- -- 72
2019-04-30 02:00:00 4.9 9 Norte 14 Norte 0 -- -- 84
2019-04-30 01:00:00 5.8 8 Norte 15 Norte 0 -- -- 81
2019-04-30 00:00:00 6.4 9 Norte 14 Norte 0 -- -- 78
2019-04-29 23:00:00 8.2 7 Norte 9 Norte 0 -- -- 68
2019-04-29 22:00:00 9.9 6 Norte 19 Noroeste 0 -- -- 62
2019-04-29 21:00:00 12.7 11 Norte 23 Noroeste 0 -- -- 52
2019-04-29 20:00:00 14.9 14 Norte 26 Norte 0 -- -- 46
2019-04-29 19:00:00 16.2 9 Norte 24 Este 0 -- -- 42
2019-04-29 18:00:00 16.8 11 Este 24 Este 0 -- -- 43
2019-04-29 17:00:00 17.6 13 Este 23 Este 0 -- -- 40
2019-04-29 16:00:00 18.3 9 Noroeste 23 Norte 0 -- -- 35
2019-04-29 15:00:00 18.5 12 Norte 30 Norte 0 -- -- 35
2019-04-29 14:00:00 17.6 13 Norte 25 Norte 0 -- -- 33
2019-04-29 13:00:00 17.7 9 Norte 28 Noroeste 0 -- -- 32
2019-04-29 12:00:00 16.5 8 Noroeste 21 Norte 0 -- -- 36
2019-04-29 11:00:00 14.9 13 Norte 21 Norte 0 -- -- 32
2019-04-29 10:00:00 13.8 6 Norte 15 Norte 0 -- -- 38
2019-04-29 09:00:00 10.7 8 Norte 13 Norte 0 -- -- 53
2019-04-29 08:00:00 5.2 8 Norte 13 Norte 0 -- -- 74
2019-04-29 07:00:00 3.9 11 Norte 14 Norte 0 -- -- 79
2019-04-29 06:00:00 5.3 12 Norte 14 Norte 0 -- -- 75
2019-04-29 05:00:00 5 13 Norte 17 Norte 0 -- -- 80
2019-04-29 04:00:00 6.2 10 Norte 22 Norte 0 -- -- 80
2019-04-29 03:00:00 6.7 11 Norte 17 Noroeste 0 -- -- 80
2019-04-29 02:00:00 7.1 8 Norte 18 Norte 0 -- -- 77
2019-04-29 01:00:00 7.8 10 Norte 22 Norte 0 -- -- 75
2019-04-29 00:00:00 8.2 11 Norte 28 Norte 0 -- -- 73
2019-04-28 23:00:00 8.7 16 Norte 23 Norte 0 -- -- 71
2019-04-28 22:00:00 10 17 Norte 25 Norte 0 -- -- 66
2019-04-28 21:00:00 11.9 18 Norte 31 Norte 0 -- -- 54
2019-04-28 20:00:00 13.8 19 Nordeste 32 Nordeste 0 -- -- 46
2019-04-28 19:00:00 16.1 16 Norte 30 Norte 0 -- -- 41
2019-04-28 18:00:00 17 17 Norte 32 Norte 0 -- -- 38
2019-04-28 17:00:00 17.3 17 Noroeste 31 Noroeste 0 -- -- 36
2019-04-28 16:00:00 16.7 19 Norte 33 Nordeste 0 -- -- 36
2019-04-28 15:00:00 16.1 18 Norte 31 Norte 0 -- -- 34
2019-04-28 14:00:00 15.6 15 Norte 36 Norte 0 -- -- 34
2019-04-28 13:00:00 15.1 18 Norte 30 Nordeste 0 -- -- 32
2019-04-28 12:00:00 14.4 8 Nordeste 21 Nordeste 0 -- -- 21
2019-04-28 11:00:00 13 11 Norte 21 Norte 0 -- -- 20
2019-04-28 10:00:00 10.6 9 Norte 23 Norte 0 -- -- 22
2019-04-28 09:00:00 7.7 3 Este 10 Norte 0 -- -- 53
2019-04-28 08:00:00 2.8 8 Norte 12 Norte 0 -- -- 76
2019-04-28 07:00:00 1.7 5 Norte 8 Norte 0 -- -- 82
2019-04-28 06:00:00 3.5 7 Noroeste 17 Norte 0 -- -- 81
2019-04-28 05:00:00 4.2 10 Norte 15 Noroeste 0 -- -- 85
2019-04-28 04:00:00 3.7 3 Sudoeste 14 Noroeste 0 -- -- 88
2019-04-28 03:00:00 5.3 7 Oeste 18 Noroeste 0 -- -- 89
2019-04-28 02:00:00 5.6 10 Noroeste 13 Noroeste 0 -- -- 90
2019-04-28 01:00:00 5.4 4 Noroeste 17 Norte 0 -- -- 86
2019-04-28 00:00:00 6.9 8 Nordeste 27 Norte 0 -- -- 85
2019-04-27 23:00:00 7.4 14 Norte 23 Noroeste 0 -- -- 85
2019-04-27 22:00:00 8.2 14 Norte 22 Norte 0 -- -- 81
2019-04-27 21:00:00 9.7 12 Norte 24 Norte 0 -- -- 73
2019-04-27 20:00:00 11.8 14 Norte 28 Norte 0 -- -- 66
2019-04-27 19:00:00 12.4 13 Nordeste 21 Nordeste 0 -- -- 66
2019-04-27 18:00:00 13.5 9 Nordeste 19 Nordeste 0 -- -- 62
2019-04-27 17:00:00 13.2 10 Este 18 Este 0 -- -- 62
2019-04-27 16:00:00 12.7 4 Nordeste 23 Este 0 -- -- 63
2019-04-27 15:00:00 13.5 10 Norte 17 Norte 0 -- -- 59
2019-04-27 14:00:00 12.5 8 Norte 21 Norte 0 -- -- 56
2019-04-27 13:00:00 12.4 9 Norte 23 Norte 0 -- -- 58
2019-04-27 12:00:00 12.2 13 Nordeste 25 Norte 0 -- -- 58
2019-04-27 11:00:00 10.5 16 Norte 24 Norte 0 -- -- 61
2019-04-27 10:00:00 9.9 8 Nordeste 15 Nordeste 0 -- -- 64
2019-04-27 09:00:00 6.8 4 Sudeste 7 Sudeste 0 -- -- 77
2019-04-27 08:00:00 2 3 Norte 11 Noroeste 0 -- -- 93
2019-04-27 07:00:00 0.6 7 Norte 10 Norte 0 -- -- 92
2019-04-27 06:00:00 0.7 6 Norte 10 Norte 0 -- -- 91
2019-04-27 05:00:00 0.6 0 Calma 7 Norte 0 -- -- 90
2019-04-27 04:00:00 0.7 3 Norte 12 Norte 0 -- -- 89
2019-04-27 03:00:00 0.9 8 Norte 12 Noroeste 0 -- -- 88
2019-04-27 02:00:00 1.2 9 Noroeste 15 Norte 0 -- -- 88
2019-04-27 01:00:00 1.3 8 Norte 12 Norte 0 -- -- 88
2019-04-27 00:00:00 1.9 8 Norte 10 Norte 0 -- -- 85
2019-04-26 23:00:00 2.8 4 Norte 12 Norte 0 -- -- 81
2019-04-26 22:00:00 4.7 5 Norte 9 Norte 0 -- -- 74
2019-04-26 21:00:00 7.2 6 Oeste 16 Noroeste 0 -- -- 62
2019-04-26 20:00:00 9.6 6 Noroeste 17 Oeste 0 -- -- 53
2019-04-26 19:00:00 10.8 13 Noroeste 26 Noroeste 0 -- -- 48
2019-04-26 18:00:00 10.8 13 Noroeste 36 Oeste 0 -- -- 54
2019-04-26 17:00:00 11.2 14 Oeste 30 Oeste 0 -- -- 49
2019-04-26 16:00:00 9.8 12 Oeste 27 Oeste 0 -- -- 54
2019-04-26 15:00:00 10.5 15 Noroeste 35 Oeste 0 -- -- 51
2019-04-26 14:00:00 8.5 15 Noroeste 39 Norte 0 -- -- 56
2019-04-26 13:00:00 9.6 13 Norte 27 Norte 0.2 -- -- 60
2019-04-26 12:00:00 7.4 6 Oeste 26 Sudoeste 0 -- -- 72
2019-04-26 11:00:00 6.5 18 Oeste 29 Oeste 0 -- -- 74
2019-04-26 10:00:00 8.7 12 Sudoeste 26 Sudoeste 0 -- -- 72
2019-04-26 09:00:00 4.2 9 Sur 18 Sur 0 -- -- 88
2019-04-26 08:00:00 3 0 Calma 15 Sudeste 0 -- -- 93
2019-04-26 07:00:00 1.9 5 Sur 18 Sudoeste 0 -- -- 90
2019-04-26 06:00:00 1.8 6 Sudoeste 18 Oeste 0 -- -- 89
2019-04-26 05:00:00 2.1 5 Oeste 24 Noroeste 0 -- -- 85
2019-04-26 04:00:00 3.2 15 Oeste 31 Noroeste 0 -- -- 82
2019-04-26 03:00:00 3 8 Noroeste 24 Oeste 0 -- -- 86
2019-04-26 02:00:00 3 7 Oeste 28 Sur 0 -- -- 86
2019-04-26 01:00:00 2.9 16 Sudoeste 37 Sudoeste 0 -- -- 85
2019-04-26 00:00:00 3 9 Sudoeste 42 Oeste 0 -- -- 82